Time;durP1;ratioP1;P1;durP2;ratioP2;P2;SDS_P1;SDS_P2;PMS_P1;PMS_P2;Temp;Humidity;BMP_temperature;BMP_pressure;BME280_temperature;BME280_humidity;BME280_pressure;Samples;Min_cycle;Max_cycle;Signal;HPM_P1;HPM_P2
2022/06/13 00:00:01;;;;;;;;;;;20.50;68.40;;;;;;5075194;28;1115;-73
2022/06/13 00:02:27;;;;;;;;;;;20.50;68.40;;;;;;5110019;28;1277;-73
2022/06/13 00:04:52;;;;;;;;;;;20.50;68.40;;;;;;5086196;28;1070;-74
2022/06/13 00:07:18;;;;;;;;;;;20.50;68.50;;;;;;5080937;28;1394;-74
2022/06/13 00:09:43;;;;;;;;;;;20.50;68.50;;;;;;5113586;28;1973;-73
2022/06/13 00:12:08;;;;;;;;;;;20.50;68.50;;;;;;5113481;28;1221;-73
2022/06/13 00:14:34;;;;;;;;;;;20.50;68.50;;;;;;5113451;28;1352;-73
2022/06/13 00:17:01;;;;;;;;;;;20.50;68.50;;;;;;5095124;28;1202;-74
2022/06/13 00:19:26;;;;;;;;;;;20.50;68.50;;;;;;5082157;28;1290;-73
2022/06/13 00:21:51;;;;;;;;;;;20.50;68.50;;;;;;5074782;28;1099;-73
2022/06/13 00:24:17;;;;;;;;;;;20.50;68.60;;;;;;5091781;28;1118;-73
2022/06/13 00:26:42;;;;;;;;;;;20.50;68.50;;;;;;5091429;28;1246;-73
2022/06/13 00:29:08;;;;;;;;;;;20.50;68.50;;;;;;5103953;28;1981;-73
2022/06/13 00:31:33;;;;;;;;;;;20.50;68.50;;;;;;5078876;28;1153;-73
2022/06/13 00:33:59;;;;;;;;;;;20.50;68.50;;;;;;5065821;28;1300;-73
2022/06/13 00:36:24;;;;;;;;;;;20.50;68.50;;;;;;5085149;28;1063;-73
2022/06/13 00:38:50;;;;;;;;;;;20.50;68.50;;;;;;5081372;28;1228;-73
2022/06/13 00:41:17;;;;;;;;;;;20.50;68.60;;;;;;5079727;28;1217;-73
2022/06/13 00:43:43;;;;;;;;;;;20.50;68.50;;;;;;5094797;28;1293;-73
2022/06/13 00:46:23;;;;;;;;;;;20.50;68.60;;;;;;5094514;28;1081;-73
2022/06/13 00:48:49;;;;;;;;;;;20.50;68.60;;;;;;5083653;28;1906;-73
2022/06/13 00:51:14;;;;;;;;;;;20.50;68.60;;;;;;5091219;28;1326;-73
2022/06/13 00:53:40;;;;;;;;;;;20.50;68.60;;;;;;5057756;28;1339;-73
2022/06/13 00:56:12;;;;;;;;;;;20.50;68.60;;;;;;5092961;28;1043;-72
2022/06/13 00:58:41;;;;;;;;;;;20.50;68.60;;;;;;5090804;28;1654;-72
2022/06/13 01:01:07;;;;;;;;;;;20.50;68.60;;;;;;5074274;28;1075;-72
2022/06/13 01:03:32;;;;;;;;;;;20.50;68.60;;;;;;5074300;28;1269;-72
2022/06/13 01:05:59;;;;;;;;;;;20.50;68.60;;;;;;5080326;28;1162;-72
2022/06/13 01:08:25;;;;;;;;;;;20.50;68.60;;;;;;5094321;28;1937;-72
2022/06/13 01:13:38;;;;;;;;;;;20.50;68.60;;;;;;5097189;28;1110;-72
2022/06/13 01:16:12;;;;;;;;;;;20.50;68.60;;;;;;5103990;28;1141;-72
2022/06/13 01:18:47;;;;;;;;;;;20.50;68.60;;;;;;5081513;28;1461;-72
2022/06/13 01:21:19;;;;;;;;;;;20.50;68.70;;;;;;5092292;28;1079;-73
2022/06/13 01:24:03;;;;;;;;;;;20.50;68.70;;;;;;5074664;28;1130;-73
2022/06/13 01:26:28;;;;;;;;;;;20.50;68.70;;;;;;5057431;28;1331;-72
2022/06/13 01:29:09;;;;;;;;;;;20.50;68.70;;;;;;5099285;28;1906;-72
2022/06/13 01:31:41;;;;;;;;;;;20.50;69.50;;;;;;5080673;28;1070;-72
2022/06/13 01:34:06;;;;;;;;;;;20.50;68.70;;;;;;5112325;28;1082;-73
2022/06/13 01:36:55;;;;;;;;;;;20.50;68.70;;;;;;5094188;28;1277;-73
2022/06/13 01:39:20;;;;;;;;;;;20.50;68.70;;;;;;5051412;28;1296;-73
2022/06/13 01:41:46;;;;;;;;;;;20.50;68.70;;;;;;5112080;28;1058;-73
2022/06/13 01:44:23;;;;;;;;;;;20.50;68.70;;;;;;5112457;28;1334;-73
2022/06/13 01:46:48;;;;;;;;;;;20.50;68.70;;;;;;5112636;28;1258;-73
2022/06/13 01:49:43;;;;;;;;;;;20.50;68.70;;;;;;5098331;28;1898;-73
2022/06/13 01:52:12;;;;;;;;;;;20.50;68.70;;;;;;5017002;28;1323;-73
2022/06/13 01:54:37;;;;;;;;;;;20.50;68.70;;;;;;5100646;28;1231;-73
2022/06/13 01:57:15;;;;;;;;;;;20.50;68.70;;;;;;5089203;28;1455;-72
2022/06/13 01:59:49;;;;;;;;;;;20.50;68.70;;;;;;5078125;28;1150;-72
2022/06/13 02:02:32;;;;;;;;;;;20.50;68.80;;;;;;5059857;28;1256;-73
2022/06/13 02:05:07;;;;;;;;;;;20.50;68.70;;;;;;5085387;28;1273;-72
2022/06/13 02:07:43;;;;;;;;;;;20.50;68.80;;;;;;5092197;28;1915;-72
2022/06/13 02:10:10;;;;;;;;;;;20.50;68.80;;;;;;5076670;28;1902;-72
2022/06/13 02:12:36;;;;;;;;;;;20.50;68.80;;;;;;5095593;28;1254;-72
2022/06/13 02:15:04;;;;;;;;;;;20.50;68.80;;;;;;5090514;28;1200;-72
2022/06/13 02:17:31;;;;;;;;;;;20.50;68.80;;;;;;5096383;28;1373;-72
2022/06/13 02:19:58;;;;;;;;;;;20.50;68.80;;;;;;5078665;28;1330;-72
2022/06/13 02:22:26;;;;;;;;;;;20.50;68.80;;;;;;5063969;28;1346;-72
2022/06/13 02:24:54;;;;;;;;;;;20.50;68.80;;;;;;5082575;28;1845;-72
2022/06/13 02:27:19;;;;;;;;;;;20.50;68.80;;;;;;5078736;28;1628;-72
2022/06/13 02:29:46;;;;;;;;;;;20.50;68.80;;;;;;5060123;28;1901;-72
2022/06/13 02:32:13;;;;;;;;;;;20.50;68.80;;;;;;5074401;28;1219;-72
2022/06/13 02:34:40;;;;;;;;;;;20.50;68.80;;;;;;5085298;28;1210;-72
2022/06/13 02:37:09;;;;;;;;;;;20.50;68.80;;;;;;5088634;28;1925;-72
2022/06/13 02:39:42;;;;;;;;;;;20.50;68.90;;;;;;5078953;28;1259;-72
2022/06/13 02:42:13;;;;;;;;;;;20.50;68.80;;;;;;5078760;28;1753;-75
2022/06/13 02:44:47;;;;;;;;;;;20.50;68.80;;;;;;5083020;28;1231;-73
2022/06/13 02:47:14;;;;;;;;;;;20.50;68.90;;;;;;5072257;28;1284;-74
2022/06/13 02:49:59;;;;;;;;;;;20.50;68.90;;;;;;5087665;28;1951;-73
2022/06/13 02:52:31;;;;;;;;;;;20.50;68.80;;;;;;5084893;28;1275;-70
2022/06/13 02:55:01;;;;;;;;;;;20.50;68.80;;;;;;5057765;28;1278;-72
2022/06/13 02:57:31;;;;;;;;;;;20.50;68.90;;;;;;5083423;28;1340;-73
2022/06/13 03:00:06;;;;;;;;;;;20.50;68.80;;;;;;5091962;28;1207;-73
2022/06/13 03:02:34;;;;;;;;;;;20.50;68.80;;;;;;5094639;28;1137;-73
2022/06/13 03:05:00;;;;;;;;;;;20.50;68.80;;;;;;5076550;28;2228;-72
2022/06/13 03:07:29;;;;;;;;;;;20.50;68.90;;;;;;5056089;28;1366;-74
2022/06/13 03:10:04;;;;;;;;;;;20.50;68.90;;;;;;5085990;28;1894;-72
2022/06/13 03:12:42;;;;;;;;;;;20.50;69.60;;;;;;5071151;28;1295;-72
2022/06/13 03:15:27;;;;;;;;;;;20.50;68.90;;;;;;5074676;28;1327;-73
2022/06/13 03:17:59;;;;;;;;;;;20.50;68.90;;;;;;5075603;28;1344;-73
2022/06/13 03:20:43;;;;;;;;;;;20.50;68.90;;;;;;5091964;28;1281;-71
2022/06/13 03:23:12;;;;;;;;;;;20.50;68.90;;;;;;5088294;28;1294;-72
2022/06/13 03:25:44;;;;;;;;;;;20.50;68.90;;;;;;5077008;28;1220;-75
2022/06/13 03:28:21;;;;;;;;;;;20.50;68.90;;;;;;5094082;28;1373;-72
2022/06/13 03:30:48;;;;;;;;;;;20.50;68.90;;;;;;5072011;28;1961;-73
2022/06/13 03:36:00;;;;;;;;;;;20.50;69.00;;;;;;5093598;28;1261;-74
2022/06/13 03:38:27;;;;;;;;;;;20.50;68.90;;;;;;5076271;28;1242;-75
2022/06/13 03:40:53;;;;;;;;;;;20.50;68.90;;;;;;5092845;28;1082;-74
2022/06/13 03:43:38;;;;;;;;;;;20.50;68.90;;;;;;5099175;28;1267;-75
2022/06/13 03:46:08;;;;;;;;;;;20.50;68.90;;;;;;5096283;28;1306;-74
2022/06/13 03:48:42;;;;;;;;;;;20.50;68.90;;;;;;5071196;28;2245;-74
2022/06/13 03:51:15;;;;;;;;;;;20.50;68.90;;;;;;5092645;28;1319;-73
2022/06/13 03:53:48;;;;;;;;;;;20.50;68.90;;;;;;5093848;28;1281;-74
2022/06/13 03:56:16;;;;;;;;;;;20.50;68.90;;;;;;5075947;28;1367;-74
2022/06/13 03:58:50;;;;;;;;;;;20.50;69.00;;;;;;5068304;28;1836;-75
2022/06/13 04:01:23;;;;;;;;;;;20.50;68.90;;;;;;5068740;28;1518;-75
2022/06/13 04:03:48;;;;;;;;;;;20.50;69.00;;;;;;5082638;28;1651;-75
2022/06/13 04:06:29;;;;;;;;;;;20.50;68.90;;;;;;5093981;28;1669;-75
2022/06/13 04:08:55;;;;;;;;;;;20.50;68.90;;;;;;5093408;28;1910;-75
2022/06/13 04:11:38;;;;;;;;;;;20.50;68.90;;;;;;5078726;28;1379;-75
2022/06/13 04:14:20;;;;;;;;;;;20.50;68.90;;;;;;5079169;28;1454;-75
2022/06/13 04:16:49;;;;;;;;;;;20.50;68.90;;;;;;5082451;28;1174;-75
2022/06/13 04:19:20;;;;;;;;;;;20.50;68.90;;;;;;5085193;28;1260;-75
2022/06/13 04:22:02;;;;;;;;;;;20.50;69.00;;;;;;5080177;28;1353;-75
2022/06/13 04:24:30;;;;;;;;;;;20.50;69.00;;;;;;5080626;28;1363;-75
2022/06/13 04:26:59;;;;;;;;;;;20.50;68.90;;;;;;5063321;28;1835;-74
2022/06/13 04:29:34;;;;;;;;;;;20.50;68.90;;;;;;5089146;28;1977;-75
2022/06/13 04:32:01;;;;;;;;;;;20.50;68.90;;;;;;5084945;28;1381;-74
2022/06/13 04:34:28;;;;;;;;;;;20.50;69.00;;;;;;5068639;28;1618;-73
2022/06/13 04:36:53;;;;;;;;;;;20.50;69.00;;;;;;5075500;28;1499;-72
2022/06/13 04:39:20;;;;;;;;;;;20.50;69.00;;;;;;5075035;28;1666;-73
2022/06/13 04:41:45;;;;;;;;;;;20.50;68.90;;;;;;5075069;28;1597;-72
2022/06/13 04:44:15;;;;;;;;;;;20.50;69.00;;;;;;5093363;28;1380;-73
2022/06/13 04:46:40;;;;;;;;;;;20.50;69.00;;;;;;5089043;28;990;-73
2022/06/13 04:49:07;;;;;;;;;;;20.50;69.00;;;;;;5088008;28;1898;-72
2022/06/13 04:51:37;;;;;;;;;;;20.50;69.00;;;;;;5075552;28;1374;-72
2022/06/13 04:54:07;;;;;;;;;;;20.50;69.00;;;;;;5075415;28;799;-72
2022/06/13 04:56:32;;;;;;;;;;;20.50;69.00;;;;;;5087976;28;1042;-72
2022/06/13 04:58:58;;;;;;;;;;;20.50;69.00;;;;;;5092427;28;1685;-72
2022/06/13 05:01:23;;;;;;;;;;;20.50;69.00;;;;;;5095492;28;834;-73
2022/06/13 05:03:49;;;;;;;;;;;20.50;69.00;;;;;;5081447;28;1359;-72
2022/06/13 05:06:20;;;;;;;;;;;20.50;69.00;;;;;;5065079;28;1176;-72
2022/06/13 05:08:47;;;;;;;;;;;20.50;69.00;;;;;;5098888;28;1893;-73
2022/06/13 05:11:22;;;;;;;;;;;20.50;69.00;;;;;;5075632;28;1474;-72
2022/06/13 05:13:48;;;;;;;;;;;20.50;69.00;;;;;;5075521;28;1719;-75
2022/06/13 05:16:32;;;;;;;;;;;20.50;69.00;;;;;;5075908;28;1383;-75
2022/06/13 05:19:16;;;;;;;;;;;20.50;69.00;;;;;;5111794;22;3586;-71
2022/06/13 05:21:46;;;;;;;;;;;20.50;69.00;;;;;;5090336;28;943;-68
2022/06/13 05:24:17;;;;;;;;;;;20.50;69.30;;;;;;5070242;28;1114;-69
2022/06/13 05:26:43;;;;;;;;;;;20.50;69.10;;;;;;5083205;28;1169;-69
2022/06/13 05:29:09;;;;;;;;;;;20.50;69.10;;;;;;5072132;28;1980;-68
2022/06/13 05:31:34;;;;;;;;;;;20.50;69.10;;;;;;5058294;28;1331;-67
2022/06/13 05:33:59;;;;;;;;;;;20.50;69.10;;;;;;5055666;28;1216;-68
2022/06/13 05:36:25;;;;;;;;;;;20.50;69.10;;;;;;5041507;28;1375;-68
2022/06/13 05:38:58;;;;;;;;;;;20.50;69.10;;;;;;5076370;28;1404;-68
2022/06/13 05:41:23;;;;;;;;;;;20.50;69.10;;;;;;5041559;28;1368;-67
2022/06/13 05:43:49;;;;;;;;;;;20.50;69.10;;;;;;5076224;28;1286;-67
2022/06/13 05:46:25;;;;;;;;;;;20.50;69.10;;;;;;5076073;28;1268;-66
2022/06/13 05:48:51;;;;;;;;;;;20.50;69.10;;;;;;5058670;28;1969;-66
2022/06/13 05:51:16;;;;;;;;;;;20.50;69.10;;;;;;5041560;28;1480;-68
2022/06/13 05:53:42;;;;;;;;;;;20.50;69.10;;;;;;5058391;28;1362;-68
2022/06/13 05:56:08;;;;;;;;;;;20.50;69.10;;;;;;5075972;28;1211;-68
2022/06/13 05:58:33;;;;;;;;;;;20.50;69.10;;;;;;5057866;28;1600;-69
2022/06/13 06:01:00;;;;;;;;;;;20.50;69.20;;;;;;5072709;28;1346;-67
2022/06/13 06:03:26;;;;;;;;;;;20.50;69.10;;;;;;5070807;28;1164;-67
2022/06/13 06:05:52;;;;;;;;;;;20.50;69.10;;;;;;5051376;28;1095;-66
2022/06/13 06:08:21;;;;;;;;;;;20.50;69.10;;;;;;5058160;28;1284;-66
2022/06/13 06:10:47;;;;;;;;;;;20.50;69.10;;;;;;5075403;28;1890;-65
2022/06/13 06:13:13;;;;;;;;;;;20.50;69.10;;;;;;5075642;28;1338;-66
2022/06/13 06:15:39;;;;;;;;;;;20.50;69.10;;;;;;5075799;28;1275;-66
2022/06/13 06:18:04;;;;;;;;;;;20.50;69.20;;;;;;5056286;28;1377;-66
2022/06/13 06:20:30;;;;;;;;;;;20.50;69.10;;;;;;5057235;28;1362;-67
2022/06/13 06:22:55;;;;;;;;;;;20.50;69.10;;;;;;5057970;28;1312;-66
2022/06/13 06:25:21;;;;;;;;;;;20.50;69.10;;;;;;5075621;28;1358;-66
2022/06/13 06:27:47;;;;;;;;;;;20.50;69.20;;;;;;5071852;28;1113;-66
2022/06/13 06:30:13;;;;;;;;;;;20.50;69.10;;;;;;5075007;28;1976;-66
2022/06/13 06:32:39;;;;;;;;;;;20.50;69.20;;;;;;5075688;28;1288;-66
2022/06/13 06:35:04;;;;;;;;;;;20.50;69.20;;;;;;5075723;28;1317;-67
2022/06/13 06:37:30;;;;;;;;;;;20.50;69.10;;;;;;5074947;28;1333;-68
2022/06/13 06:39:57;;;;;;;;;;;20.50;69.20;;;;;;5074661;28;1436;-67
2022/06/13 06:42:22;;;;;;;;;;;20.50;69.20;;;;;;5056996;28;1314;-70
2022/06/13 06:44:48;;;;;;;;;;;20.50;69.20;;;;;;5074967;28;1278;-69
2022/06/13 06:47:13;;;;;;;;;;;20.50;69.20;;;;;;5057302;28;1297;-67
2022/06/13 06:49:38;;;;;;;;;;;20.50;69.20;;;;;;5074694;28;1973;-67
2022/06/13 06:52:05;;;;;;;;;;;20.50;69.20;;;;;;5074959;28;1318;-66
2022/06/13 06:59:59;;;;;;;;;;;20.50;69.20;;;;;;5074826;28;1183;-65
2022/06/13 07:02:26;;;;;;;;;;;20.50;69.20;;;;;;5075467;28;1405;-65
2022/06/13 07:04:52;;;;;;;;;;;20.50;69.20;;;;;;5075002;28;1321;-65
2022/06/13 07:07:18;;;;;;;;;;;20.50;69.20;;;;;;5056804;28;1344;-67
2022/06/13 07:09:43;;;;;;;;;;;20.50;69.20;;;;;;5056609;28;1976;-66
2022/06/13 07:12:09;;;;;;;;;;;20.50;69.20;;;;;;5074664;28;1373;-66
2022/06/13 07:14:35;;;;;;;;;;;20.50;69.20;;;;;;5074732;28;1346;-66
2022/06/13 07:17:01;;;;;;;;;;;20.50;69.20;;;;;;5074698;28;1329;-67
2022/06/13 07:19:27;;;;;;;;;;;20.50;69.20;;;;;;5070522;28;1309;-68
2022/06/13 07:21:53;;;;;;;;;;;20.50;69.20;;;;;;5056238;28;1407;-68
2022/06/13 07:24:20;;;;;;;;;;;20.50;69.20;;;;;;5056763;28;1107;-68
2022/06/13 07:26:46;;;;;;;;;;;20.50;69.20;;;;;;5056175;28;1349;-68
2022/06/13 07:29:12;;;;;;;;;;;20.50;69.20;;;;;;5074475;28;1914;-67
2022/06/13 07:31:41;;;;;;;;;;;20.50;69.20;;;;;;5050204;28;1402;-70
2022/06/13 07:34:07;;;;;;;;;;;20.50;69.20;;;;;;5056432;28;1275;-69
2022/06/13 07:36:33;;;;;;;;;;;20.50;69.20;;;;;;5039271;28;1273;-69
2022/06/13 07:38:58;;;;;;;;;;;20.50;69.20;;;;;;5056257;28;1420;-69
2022/06/13 07:41:24;;;;;;;;;;;20.50;69.20;;;;;;5073926;28;1288;-69
2022/06/13 07:43:50;;;;;;;;;;;20.50;69.20;;;;;;5056332;28;1278;-68
2022/06/13 07:46:15;;;;;;;;;;;20.50;69.20;;;;;;5056178;28;1453;-68
2022/06/13 07:48:41;;;;;;;;;;;20.50;69.20;;;;;;5073939;28;1898;-69
2022/06/13 07:51:06;;;;;;;;;;;20.50;69.20;;;;;;5072833;28;1085;-68
2022/06/13 07:53:32;;;;;;;;;;;20.50;69.20;;;;;;5074154;28;1195;-70
2022/06/13 07:55:58;;;;;;;;;;;20.50;69.30;;;;;;5073994;28;1342;-70
2022/06/13 07:58:30;;;;;;;;;;;20.50;69.20;;;;;;5056016;28;1588;-70
2022/06/13 08:00:55;;;;;;;;;;;20.50;69.20;;;;;;5055678;28;1358;-68
2022/06/13 08:03:24;;;;;;;;;;;20.50;69.20;;;;;;5055818;28;1309;-68
2022/06/13 08:05:50;;;;;;;;;;;20.50;69.20;;;;;;5055833;28;1296;-68
2022/06/13 08:08:16;;;;;;;;;;;20.50;69.20;;;;;;5073687;28;1283;-68
2022/06/13 08:10:41;;;;;;;;;;;20.50;69.20;;;;;;5055377;28;1988;-67
2022/06/13 08:13:07;;;;;;;;;;;20.50;69.20;;;;;;5055803;28;1320;-67
2022/06/13 08:15:33;;;;;;;;;;;20.50;69.20;;;;;;5072569;28;1306;-68
2022/06/13 08:17:58;;;;;;;;;;;20.50;69.20;;;;;;5072703;28;1298;-67
2022/06/13 08:20:24;;;;;;;;;;;20.50;69.30;;;;;;5068730;28;1374;-67
2022/06/13 08:22:49;;;;;;;;;;;20.50;69.30;;;;;;5055745;28;1361;-67
2022/06/13 08:25:16;;;;;;;;;;;20.50;69.30;;;;;;5073465;28;1241;-67
2022/06/13 08:27:41;;;;;;;;;;;20.50;69.20;;;;;;5069985;28;1326;-67
2022/06/13 08:30:07;;;;;;;;;;;20.50;69.30;;;;;;5072802;28;1914;-67
2022/06/13 08:32:32;;;;;;;;;;;20.50;69.30;;;;;;5073332;28;1380;-68
2022/06/13 08:34:58;;;;;;;;;;;20.50;69.30;;;;;;5072981;28;1753;-67
2022/06/13 08:37:23;;;;;;;;;;;20.50;69.30;;;;;;5073119;28;1257;-68
2022/06/13 08:39:49;;;;;;;;;;;20.50;69.30;;;;;;5073216;28;1251;-67
2022/06/13 08:42:16;;;;;;;;;;;20.50;69.30;;;;;;5067870;28;2159;-67
2022/06/13 08:45:02;;;;;;;;;;;20.50;69.40;;;;;;5038291;28;1839;-66
2022/06/13 08:47:37;;;;;;;;;;;20.50;69.30;;;;;;5044421;28;1111;-66
2022/06/13 08:50:15;;;;;;;;;;;20.50;69.30;;;;;;5052320;28;1963;-67
2022/06/13 08:52:43;;;;;;;;;;;20.50;69.40;;;;;;5055111;28;1345;-67
2022/06/13 08:55:13;;;;;;;;;;;20.50;69.40;;;;;;5038399;28;1382;-66
2022/06/13 08:57:43;;;;;;;;;;;20.50;69.30;;;;;;5054795;28;1448;-67
2022/06/13 09:00:11;;;;;;;;;;;20.50;69.40;;;;;;5037996;28;1274;-68
2022/06/13 09:02:48;;;;;;;;;;;20.50;69.40;;;;;;5055092;28;1369;-68
2022/06/13 09:05:37;;;;;;;;;;;20.50;69.40;;;;;;5072931;28;1271;-69
2022/06/13 09:08:16;;;;;;;;;;;20.50;69.30;;;;;;5059181;28;1310;-69
2022/06/13 09:10:53;;;;;;;;;;;20.50;69.40;;;;;;5054383;28;1965;-69
2022/06/13 09:13:19;;;;;;;;;;;20.50;69.30;;;;;;5072800;28;1272;-69
2022/06/13 09:15:46;;;;;;;;;;;20.50;69.30;;;;;;5072612;28;1115;-68
2022/06/13 09:18:18;;;;;;;;;;;20.50;69.30;;;;;;5052346;28;1307;-69
2022/06/13 09:20:46;;;;;;;;;;;20.50;69.30;;;;;;5031960;28;1626;-68
2022/06/13 09:23:14;;;;;;;;;;;20.50;68.90;;;;;;5021908;28;1735;-68
2022/06/13 09:25:39;;;;;;;;;;;20.50;68.90;;;;;;5051839;28;1251;-68
2022/06/13 09:28:07;;;;;;;;;;;20.50;68.90;;;;;;5066662;28;1111;-67
2022/06/13 09:30:36;;;;;;;;;;;20.50;68.90;;;;;;5043152;28;1906;-68
2022/06/13 09:33:12;;;;;;;;;;;20.50;69.00;;;;;;5044586;28;1260;-70
2022/06/13 09:35:47;;;;;;;;;;;20.50;68.90;;;;;;5041717;28;1210;-69
2022/06/13 09:38:18;;;;;;;;;;;20.50;69.00;;;;;;5040675;28;1289;-66
2022/06/13 09:40:47;;;;;;;;;;;20.50;69.80;;;;;;5041266;28;1504;-66
2022/06/13 09:43:19;;;;;;;;;;;20.50;69.10;;;;;;5045550;28;1344;-66
2022/06/13 09:46:13;;;;;;;;;;;20.50;69.10;;;;;;5065085;28;1238;-68
2022/06/13 09:48:54;;;;;;;;;;;20.50;69.00;;;;;;5043570;28;1972;-66
2022/06/13 09:51:26;;;;;;;;;;;20.50;69.10;;;;;;5065540;28;1349;-67
2022/06/13 09:53:54;;;;;;;;;;;20.50;69.10;;;;;;5062078;28;1061;-67
2022/06/13 09:56:22;;;;;;;;;;;20.50;69.10;;;;;;5065399;28;1180;-67
2022/06/13 09:58:51;;;;;;;;;;;20.50;69.10;;;;;;5063486;28;1349;-68
2022/06/13 10:01:16;;;;;;;;;;;20.50;69.10;;;;;;5064431;28;1211;-67
2022/06/13 10:03:45;;;;;;;;;;;20.50;69.10;;;;;;5064219;28;1290;-68
2022/06/13 10:06:26;;;;;;;;;;;20.50;69.10;;;;;;5062127;28;1195;-68
2022/06/13 10:08:52;;;;;;;;;;;20.50;69.10;;;;;;5054347;28;1963;-68
2022/06/13 10:11:20;;;;;;;;;;;20.50;69.10;;;;;;5060714;28;1750;-69
2022/06/13 10:13:52;;;;;;;;;;;20.50;69.10;;;;;;5047198;28;1329;-69
2022/06/13 10:16:33;;;;;;;;;;;20.50;69.10;;;;;;5054855;28;1465;-68
2022/06/13 10:19:02;;;;;;;;;;;20.50;69.10;;;;;;5074466;28;1319;-68
2022/06/13 10:21:30;;;;;;;;;;;20.50;69.20;;;;;;5050990;28;1098;-68
2022/06/13 10:23:59;;;;;;;;;;;20.50;69.10;;;;;;5062415;28;1259;-68
2022/06/13 10:26:43;;;;;;;;;;;20.50;69.10;;;;;;5053945;28;1349;-68
2022/06/13 10:29:26;;;;;;;;;;;20.50;69.20;;;;;;5074977;28;1973;-68
2022/06/13 10:32:04;;;;;;;;;;;20.50;69.20;;;;;;5051568;28;1106;-68
2022/06/13 10:34:41;;;;;;;;;;;20.50;69.20;;;;;;5075394;28;1294;-68
2022/06/13 10:37:25;;;;;;;;;;;20.50;69.20;;;;;;5057173;28;1325;-68
2022/06/13 10:39:52;;;;;;;;;;;20.50;69.20;;;;;;5074530;28;1357;-67
2022/06/13 10:42:21;;;;;;;;;;;20.50;69.20;;;;;;5056846;28;1254;-67
2022/06/13 10:44:47;;;;;;;;;;;20.50;69.20;;;;;;5052643;28;1032;-67
2022/06/13 10:47:18;;;;;;;;;;;20.50;69.20;;;;;;5065855;28;1337;-67
2022/06/13 10:49:45;;;;;;;;;;;20.50;69.20;;;;;;5056740;28;1963;-68
2022/06/13 10:52:14;;;;;;;;;;;20.50;69.20;;;;;;5074537;28;1325;-67
2022/06/13 10:54:42;;;;;;;;;;;20.50;69.20;;;;;;5074782;28;1146;-67
2022/06/13 10:57:17;;;;;;;;;;;20.50;69.20;;;;;;5056587;28;1428;-67
2022/06/13 10:59:43;;;;;;;;;;;20.50;69.20;;;;;;5056905;28;1236;-68
2022/06/13 11:02:17;;;;;;;;;;;20.50;69.20;;;;;;5074309;28;1535;-67
2022/06/13 11:04:43;;;;;;;;;;;20.50;69.20;;;;;;5074490;28;1270;-67
2022/06/13 11:07:12;;;;;;;;;;;20.50;69.20;;;;;;5074183;28;1306;-68
2022/06/13 11:09:38;;;;;;;;;;;20.50;69.20;;;;;;5056338;28;1902;-68
2022/06/13 11:12:30;;;;;;;;;;;20.50;69.20;;;;;;5072936;28;2001;-68
2022/06/13 11:23:12;;;;;;;;;;;20.50;69.20;;;;;;5108606;28;1072;-72
2022/06/13 11:25:37;;;;;;;;;;;20.50;69.20;;;;;;5095135;28;1314;-74
2022/06/13 11:28:04;;;;;;;;;;;20.50;69.20;;;;;;5078191;28;1193;-72
2022/06/13 11:30:33;;;;;;;;;;;20.50;69.20;;;;;;5076053;28;1914;-71
2022/06/13 11:33:02;;;;;;;;;;;20.50;69.20;;;;;;5085505;28;1231;-74
2022/06/13 11:35:31;;;;;;;;;;;20.50;69.30;;;;;;5065204;28;1286;-74
2022/06/13 11:38:22;;;;;;;;;;;20.50;69.30;;;;;;5087335;28;1234;-71
2022/06/13 11:40:56;;;;;;;;;;;20.50;69.20;;;;;;5053285;28;1303;-73
2022/06/13 11:43:23;;;;;;;;;;;20.50;69.30;;;;;;5083158;28;1178;-72
2022/06/13 11:45:58;;;;;;;;;;;20.50;69.20;;;;;;5064429;28;1531;-69
2022/06/13 11:48:23;;;;;;;;;;;20.50;69.20;;;;;;5084544;28;1212;-69
2022/06/13 11:50:52;;;;;;;;;;;20.50;69.30;;;;;;5064459;28;1918;-68
2022/06/13 11:53:36;;;;;;;;;;;20.50;69.30;;;;;;5053584;28;1398;-73
2022/06/13 11:56:02;;;;;;;;;;;20.50;69.20;;;;;;5072659;28;1204;-73
2022/06/13 11:58:28;;;;;;;;;;;20.50;69.30;;;;;;5068849;28;1531;-73
2022/06/13 12:01:00;;;;;;;;;;;20.50;69.30;;;;;;5068215;28;1265;-73
2022/06/13 12:03:26;;;;;;;;;;;20.50;69.30;;;;;;5072197;28;1266;-71
2022/06/13 12:06:09;;;;;;;;;;;20.50;69.20;;;;;;5055728;28;1374;-71
2022/06/13 12:08:34;;;;;;;;;;;20.50;69.20;;;;;;5087557;28;1063;-71
2022/06/13 12:11:23;;;;;;;;;;;20.50;69.30;;;;;;5075153;28;1874;-71
2022/06/13 12:13:49;;;;;;;;;;;20.50;69.30;;;;;;5084661;28;1353;-71
2022/06/13 12:16:21;;;;;;;;;;;20.50;69.20;;;;;;5058664;28;1163;-71
2022/06/13 12:18:46;;;;;;;;;;;20.50;69.30;;;;;;5090303;28;1212;-71
2022/06/13 12:21:42;;;;;;;;;;;20.50;69.30;;;;;;5093650;28;1192;-70
2022/06/13 12:24:11;;;;;;;;;;;20.50;69.30;;;;;;5067463;28;1367;-70
2022/06/13 12:26:37;;;;;;;;;;;20.50;69.30;;;;;;5072473;28;1254;-70
2022/06/13 12:29:10;;;;;;;;;;;20.50;69.30;;;;;;5067906;28;1961;-69
2022/06/13 12:31:47;;;;;;;;;;;20.50;69.40;;;;;;5054186;28;1141;-70
2022/06/13 12:34:22;;;;;;;;;;;20.50;69.40;;;;;;5058619;28;1364;-70
2022/06/13 12:36:50;;;;;;;;;;;20.50;69.30;;;;;;5074847;28;1569;-70
2022/06/13 12:39:25;;;;;;;;;;;20.50;69.40;;;;;;5075167;28;1218;-70
2022/06/13 12:41:58;;;;;;;;;;;20.50;69.40;;;;;;5093045;28;1130;-70
2022/06/13 12:44:29;;;;;;;;;;;20.50;69.30;;;;;;5073831;28;1964;-70
2022/06/13 12:46:58;;;;;;;;;;;20.50;69.30;;;;;;5074622;28;1294;-70
2022/06/13 12:49:33;;;;;;;;;;;20.50;69.30;;;;;;5066359;28;1902;-70
2022/06/13 12:51:59;;;;;;;;;;;20.50;69.40;;;;;;5092925;28;1082;-71
2022/06/13 12:54:34;;;;;;;;;;;20.50;69.30;;;;;;5092883;28;1386;-71
2022/06/13 12:57:20;;;;;;;;;;;20.50;69.40;;;;;;5093095;28;1412;-71
2022/06/13 13:00:04;;;;;;;;;;;20.50;69.40;;;;;;5041393;28;1356;-73
2022/06/13 13:02:29;;;;;;;;;;;20.50;69.40;;;;;;5086920;28;2314;-75
2022/06/13 13:05:17;;;;;;;;;;;20.50;69.40;;;;;;5067161;28;1244;-76
2022/06/13 13:08:01;;;;;;;;;;;20.50;70.10;;;;;;5064959;28;1077;-74
2022/06/13 13:10:26;;;;;;;;;;;20.50;69.40;;;;;;5083487;28;1890;-71
2022/06/13 13:12:54;;;;;;;;;;;20.50;69.30;;;;;;5084853;28;1238;-73
2022/06/13 13:15:42;;;;;;;;;;;20.50;69.30;;;;;;5069022;28;1871;-70
2022/06/13 13:18:30;;;;;;;;;;;20.50;69.40;;;;;;5085039;28;1255;-71
2022/06/13 13:21:11;;;;;;;;;;;20.50;69.30;;;;;;5067330;28;1330;-72
2022/06/13 13:24:05;;;;;;;;;;;20.50;69.40;;;;;;5085842;28;1203;-73
2022/06/13 13:26:33;;;;;;;;;;;20.50;69.40;;;;;;5058105;28;1753;-73
2022/06/13 13:29:02;;;;;;;;;;;20.50;69.40;;;;;;5083026;28;1914;-70
2022/06/13 13:31:29;;;;;;;;;;;20.50;69.40;;;;;;5064913;28;1326;-71
2022/06/13 13:33:58;;;;;;;;;;;20.50;69.40;;;;;;5084570;28;1290;-70
2022/06/13 13:36:26;;;;;;;;;;;20.50;69.40;;;;;;5083568;28;1254;-70
2022/06/13 13:38:53;;;;;;;;;;;20.50;69.40;;;;;;5062595;28;1179;-71
2022/06/13 13:41:22;;;;;;;;;;;20.50;69.40;;;;;;5087314;28;1306;-70
2022/06/13 13:43:52;;;;;;;;;;;20.50;69.40;;;;;;5086843;28;1156;-70
2022/06/13 13:46:21;;;;;;;;;;;20.50;69.40;;;;;;5074167;28;1872;-69
2022/06/13 13:48:55;;;;;;;;;;;20.50;69.40;;;;;;5094311;28;1878;-70
2022/06/13 13:51:25;;;;;;;;;;;20.50;69.40;;;;;;5096301;28;1331;-70
2022/06/13 13:54:09;;;;;;;;;;;20.50;69.40;;;;;;5078167;28;1286;-69
2022/06/13 13:56:39;;;;;;;;;;;20.50;69.40;;;;;;5096447;28;1361;-69
2022/06/13 13:59:04;;;;;;;;;;;20.50;69.40;;;;;;5061031;28;1581;-69
2022/06/13 14:01:42;;;;;;;;;;;20.50;69.40;;;;;;5077759;28;1391;-69
2022/06/13 14:04:12;;;;;;;;;;;20.50;69.40;;;;;;5096267;28;1222;-69
2022/06/13 14:06:43;;;;;;;;;;;20.50;69.40;;;;;;5096290;28;1260;-68
2022/06/13 14:09:09;;;;;;;;;;;20.50;69.40;;;;;;5077775;28;1971;-69
2022/06/13 14:11:53;;;;;;;;;;;20.50;69.40;;;;;;5096677;28;1295;-68
2022/06/13 14:14:18;;;;;;;;;;;20.50;69.40;;;;;;5095725;28;1256;-70
2022/06/13 14:16:47;;;;;;;;;;;20.50;69.40;;;;;;5077535;28;1087;-70
2022/06/13 14:19:15;;;;;;;;;;;20.50;69.40;;;;;;5077725;28;1207;-70
2022/06/13 14:21:44;;;;;;;;;;;20.50;69.40;;;;;;5095567;28;1321;-68
2022/06/13 14:24:10;;;;;;;;;;;20.50;69.40;;;;;;5095551;28;1189;-69
2022/06/13 14:26:35;;;;;;;;;;;20.50;69.40;;;;;;5075299;28;1271;-68
2022/06/13 14:29:05;;;;;;;;;;;20.50;69.40;;;;;;5095036;28;1944;-70
2022/06/13 14:31:31;;;;;;;;;;;20.50;69.40;;;;;;5094925;28;1319;-70
2022/06/13 14:36:55;;;;;;;;;;;20.50;69.40;;;;;;5095383;28;1083;-68
2022/06/13 14:39:30;;;;;;;;;;;20.50;69.50;;;;;;5094735;28;1393;-69
2022/06/13 14:42:04;;;;;;;;;;;20.50;69.40;;;;;;5094996;28;1290;-69
2022/06/13 14:44:33;;;;;;;;;;;20.50;69.50;;;;;;5076937;28;1300;-68
2022/06/13 14:47:07;;;;;;;;;;;20.50;69.50;;;;;;5077106;28;1358;-68
2022/06/13 14:49:41;;;;;;;;;;;20.50;70.20;;;;;;5076934;28;1890;-68
2022/06/13 14:52:18;;;;;;;;;;;20.50;69.40;;;;;;5094849;28;1361;-69
2022/06/13 14:54:44;;;;;;;;;;;20.50;69.40;;;;;;5077044;28;1390;-68
2022/06/13 14:57:27;;;;;;;;;;;20.50;69.40;;;;;;5094823;28;1381;-68
2022/06/13 15:00:08;;;;;;;;;;;20.50;69.40;;;;;;5094271;28;1340;-68
2022/06/13 15:02:34;;;;;;;;;;;20.50;69.40;;;;;;5077154;28;1398;-68
2022/06/13 15:05:00;;;;;;;;;;;20.50;69.40;;;;;;5067204;28;1122;-69
2022/06/13 15:07:30;;;;;;;;;;;20.50;69.50;;;;;;5086417;28;1460;-69
2022/06/13 15:10:06;;;;;;;;;;;20.50;70.20;;;;;;5076289;28;1961;-69